sensor_id;sensor_type;location;lat;lon;timestamp;P1;durP1;ratioP1;P2;durP2;ratioP2
81211;SDS011;70686;52.494;13.420;2023-06-19T00:02:08;13.00;;;10.00;;
81211;SDS011;70686;52.494;13.420;2023-06-19T00:04:34;12.63;;;10.10;;
81211;SDS011;70686;52.494;13.420;2023-06-19T00:07:00;10.95;;;9.85;;
81211;SDS011;70686;52.494;13.420;2023-06-19T00:09:26;11.80;;;10.38;;
81211;SDS011;70686;52.494;13.420;2023-06-19T00:11:51;12.90;;;10.75;;
81211;SDS011;70686;52.494;13.420;2023-06-19T00:14:17;12.38;;;10.35;;
81211;SDS011;70686;52.494;13.420;2023-06-19T00:16:43;12.95;;;10.23;;
81211;SDS011;70686;52.494;13.420;2023-06-19T00:21:35;12.23;;;10.48;;
81211;SDS011;70686;52.494;13.420;2023-06-19T00:24:02;13.75;;;10.68;;
81211;SDS011;70686;52.494;13.420;2023-06-19T00:28:54;14.05;;;10.48;;
81211;SDS011;70686;52.494;13.420;2023-06-19T00:31:20;21.48;;;10.63;;
81211;SDS011;70686;52.494;13.420;2023-06-19T00:33:45;12.00;;;10.80;;
81211;SDS011;70686;52.494;13.420;2023-06-19T00:36:13;11.63;;;10.43;;
81211;SDS011;70686;52.494;13.420;2023-06-19T00:38:40;12.48;;;10.57;;
81211;SDS011;70686;52.494;13.420;2023-06-19T00:41:07;13.10;;;10.85;;
81211;SDS011;70686;52.494;13.420;2023-06-19T00:43:33;12.07;;;10.75;;
81211;SDS011;70686;52.494;13.420;2023-06-19T00:46:00;12.60;;;11.07;;
81211;SDS011;70686;52.494;13.420;2023-06-19T00:48:27;12.52;;;10.73;;
81211;SDS011;70686;52.494;13.420;2023-06-19T00:50:53;12.13;;;10.55;;
81211;SDS011;70686;52.494;13.420;2023-06-19T00:53:21;12.45;;;11.10;;
81211;SDS011;70686;52.494;13.420;2023-06-19T00:55:48;11.30;;;10.10;;
81211;SDS011;70686;52.494;13.420;2023-06-19T00:58:16;13.10;;;10.52;;
81211;SDS011;70686;52.494;13.420;2023-06-19T01:00:46;14.15;;;10.57;;
81211;SDS011;70686;52.494;13.420;2023-06-19T01:03:12;16.63;;;10.82;;
81211;SDS011;70686;52.494;13.420;2023-06-19T01:08:12;11.15;;;10.15;;
81211;SDS011;70686;52.494;13.420;2023-06-19T01:10:48;12.13;;;10.93;;
81211;SDS011;70686;52.494;13.420;2023-06-19T01:13:28;11.65;;;10.45;;
81211;SDS011;70686;52.494;13.420;2023-06-19T01:16:02;17.60;;;10.75;;
81211;SDS011;70686;52.494;13.420;2023-06-19T01:18:30;13.77;;;11.27;;
81211;SDS011;70686;52.494;13.420;2023-06-19T01:20:56;12.20;;;10.85;;
81211;SDS011;70686;52.494;13.420;2023-06-19T01:23:34;13.02;;;11.32;;
81211;SDS011;70686;52.494;13.420;2023-06-19T01:25:59;12.25;;;10.15;;
81211;SDS011;70686;52.494;13.420;2023-06-19T01:28:25;12.18;;;10.65;;
81211;SDS011;70686;52.494;13.420;2023-06-19T01:30:51;13.00;;;11.35;;
81211;SDS011;70686;52.494;13.420;2023-06-19T01:33:26;13.63;;;10.93;;
81211;SDS011;70686;52.494;13.420;2023-06-19T01:35:53;12.25;;;11.02;;
81211;SDS011;70686;52.494;13.420;2023-06-19T01:38:22;11.93;;;10.73;;
81211;SDS011;70686;52.494;13.420;2023-06-19T01:40:54;12.43;;;11.05;;
81211;SDS011;70686;52.494;13.420;2023-06-19T01:43:23;14.13;;;11.32;;
81211;SDS011;70686;52.494;13.420;2023-06-19T01:45:50;12.82;;;11.55;;
81211;SDS011;70686;52.494;13.420;2023-06-19T01:48:16;12.88;;;11.32;;
81211;SDS011;70686;52.494;13.420;2023-06-19T01:50:48;13.13;;;11.80;;
81211;SDS011;70686;52.494;13.420;2023-06-19T01:53:15;12.27;;;11.05;;
81211;SDS011;70686;52.494;13.420;2023-06-19T01:55:41;12.60;;;11.40;;
81211;SDS011;70686;52.494;13.420;2023-06-19T01:58:07;12.40;;;11.27;;
81211;SDS011;70686;52.494;13.420;2023-06-19T02:00:33;19.15;;;11.57;;
81211;SDS011;70686;52.494;13.420;2023-06-19T02:03:04;12.23;;;11.02;;
81211;SDS011;70686;52.494;13.420;2023-06-19T02:05:33;14.23;;;11.55;;
81211;SDS011;70686;52.494;13.420;2023-06-19T02:07:59;12.63;;;11.18;;
81211;SDS011;70686;52.494;13.420;2023-06-19T02:10:25;13.25;;;11.52;;
81211;SDS011;70686;52.494;13.420;2023-06-19T02:12:50;12.80;;;11.35;;
81211;SDS011;70686;52.494;13.420;2023-06-19T02:15:16;12.98;;;11.10;;
81211;SDS011;70686;52.494;13.420;2023-06-19T02:17:42;13.13;;;11.70;;
81211;SDS011;70686;52.494;13.420;2023-06-19T02:20:08;12.02;;;10.82;;
81211;SDS011;70686;52.494;13.420;2023-06-19T02:22:39;12.55;;;11.27;;
81211;SDS011;70686;52.494;13.420;2023-06-19T02:25:05;12.90;;;11.45;;
81211;SDS011;70686;52.494;13.420;2023-06-19T02:29:57;12.63;;;11.32;;
81211;SDS011;70686;52.494;13.420;2023-06-19T02:32:23;13.60;;;12.18;;
81211;SDS011;70686;52.494;13.420;2023-06-19T02:34:48;12.90;;;11.70;;
81211;SDS011;70686;52.494;13.420;2023-06-19T02:37:14;12.63;;;11.18;;
81211;SDS011;70686;52.494;13.420;2023-06-19T02:39:40;15.52;;;11.32;;
81211;SDS011;70686;52.494;13.420;2023-06-19T02:42:06;11.98;;;10.70;;
81211;SDS011;70686;52.494;13.420;2023-06-19T02:46:57;13.85;;;11.55;;
81211;SDS011;70686;52.494;13.420;2023-06-19T02:49:23;12.90;;;11.55;;
81211;SDS011;70686;52.494;13.420;2023-06-19T02:51:49;13.55;;;12.23;;
81211;SDS011;70686;52.494;13.420;2023-06-19T02:54:14;14.63;;;11.85;;
81211;SDS011;70686;52.494;13.420;2023-06-19T02:56:40;14.63;;;12.48;;
81211;SDS011;70686;52.494;13.420;2023-06-19T02:59:06;16.25;;;11.43;;
81211;SDS011;70686;52.494;13.420;2023-06-19T03:01:31;13.93;;;12.13;;
81211;SDS011;70686;52.494;13.420;2023-06-19T03:03:59;14.40;;;12.10;;
81211;SDS011;70686;52.494;13.420;2023-06-19T03:06:24;15.48;;;11.82;;
81211;SDS011;70686;52.494;13.420;2023-06-19T03:08:51;13.35;;;11.75;;
81211;SDS011;70686;52.494;13.420;2023-06-19T03:16:21;15.75;;;12.43;;
81211;SDS011;70686;52.494;13.420;2023-06-19T03:18:47;15.90;;;12.07;;
81211;SDS011;70686;52.494;13.420;2023-06-19T03:23:39;15.68;;;12.48;;
81211;SDS011;70686;52.494;13.420;2023-06-19T03:26:12;14.98;;;12.63;;
81211;SDS011;70686;52.494;13.420;2023-06-19T03:28:38;14.70;;;12.77;;
81211;SDS011;70686;52.494;13.420;2023-06-19T03:31:03;14.02;;;12.23;;
81211;SDS011;70686;52.494;13.420;2023-06-19T03:33:29;14.02;;;12.55;;
81211;SDS011;70686;52.494;13.420;2023-06-19T03:35:55;13.52;;;12.20;;
81211;SDS011;70686;52.494;13.420;2023-06-19T03:38:21;14.48;;;12.80;;
81211;SDS011;70686;52.494;13.420;2023-06-19T03:40:47;14.40;;;11.77;;
81211;SDS011;70686;52.494;13.420;2023-06-19T03:43:12;13.95;;;12.65;;
81211;SDS011;70686;52.494;13.420;2023-06-19T03:45:38;13.75;;;12.25;;
81211;SDS011;70686;52.494;13.420;2023-06-19T03:48:04;13.07;;;11.80;;
81211;SDS011;70686;52.494;13.420;2023-06-19T03:50:30;13.75;;;12.32;;
81211;SDS011;70686;52.494;13.420;2023-06-19T03:52:55;13.07;;;11.75;;
81211;SDS011;70686;52.494;13.420;2023-06-19T03:55:21;14.20;;;11.63;;
81211;SDS011;70686;52.494;13.420;2023-06-19T03:57:47;12.32;;;11.13;;
81211;SDS011;70686;52.494;13.420;2023-06-19T04:00:13;13.25;;;11.95;;
81211;SDS011;70686;52.494;13.420;2023-06-19T04:02:40;14.55;;;12.20;;
81211;SDS011;70686;52.494;13.420;2023-06-19T04:07:32;12.85;;;11.52;;
81211;SDS011;70686;52.494;13.420;2023-06-19T04:10:03;14.82;;;12.07;;
81211;SDS011;70686;52.494;13.420;2023-06-19T04:12:29;14.35;;;12.70;;
81211;SDS011;70686;52.494;13.420;2023-06-19T04:14:54;13.48;;;12.18;;
81211;SDS011;70686;52.494;13.420;2023-06-19T04:17:20;13.95;;;12.45;;
81211;SDS011;70686;52.494;13.420;2023-06-19T04:19:46;13.27;;;11.80;;
81211;SDS011;70686;52.494;13.420;2023-06-19T04:22:12;17.75;;;12.10;;
81211;SDS011;70686;52.494;13.420;2023-06-19T04:24:38;13.20;;;12.00;;
81211;SDS011;70686;52.494;13.420;2023-06-19T04:27:03;14.13;;;12.60;;
81211;SDS011;70686;52.494;13.420;2023-06-19T04:29:29;14.27;;;12.07;;
81211;SDS011;70686;52.494;13.420;2023-06-19T04:31:56;15.77;;;12.30;;
81211;SDS011;70686;52.494;13.420;2023-06-19T04:34:23;13.63;;;12.20;;
81211;SDS011;70686;52.494;13.420;2023-06-19T04:36:50;13.90;;;12.60;;
81211;SDS011;70686;52.494;13.420;2023-06-19T04:39:17;14.25;;;11.95;;
81211;SDS011;70686;52.494;13.420;2023-06-19T04:41:46;15.38;;;13.05;;
81211;SDS011;70686;52.494;13.420;2023-06-19T04:44:11;14.52;;;12.65;;
81211;SDS011;70686;52.494;13.420;2023-06-19T04:46:37;13.90;;;12.30;;
81211;SDS011;70686;52.494;13.420;2023-06-19T04:51:30;15.00;;;12.00;;
81211;SDS011;70686;52.494;13.420;2023-06-19T04:53:58;20.67;;;13.07;;
81211;SDS011;70686;52.494;13.420;2023-06-19T04:56:24;15.13;;;12.50;;
81211;SDS011;70686;52.494;13.420;2023-06-19T04:58:50;13.52;;;12.18;;
81211;SDS011;70686;52.494;13.420;2023-06-19T05:03:45;17.65;;;12.77;;
81211;SDS011;70686;52.494;13.420;2023-06-19T05:06:11;13.43;;;11.98;;
81211;SDS011;70686;52.494;13.420;2023-06-19T05:11:02;13.32;;;11.95;;
81211;SDS011;70686;52.494;13.420;2023-06-19T05:13:28;15.88;;;13.23;;
81211;SDS011;70686;52.494;13.420;2023-06-19T05:15:54;13.55;;;11.95;;
81211;SDS011;70686;52.494;13.420;2023-06-19T05:18:21;14.45;;;12.65;;
81211;SDS011;70686;52.494;13.420;2023-06-19T05:20:47;25.33;;;12.73;;
81211;SDS011;70686;52.494;13.420;2023-06-19T05:23:13;14.82;;;12.18;;
81211;SDS011;70686;52.494;13.420;2023-06-19T05:25:39;17.38;;;13.30;;
81211;SDS011;70686;52.494;13.420;2023-06-19T05:28:05;17.50;;;12.35;;
81211;SDS011;70686;52.494;13.420;2023-06-19T05:30:31;17.63;;;12.45;;
81211;SDS011;70686;52.494;13.420;2023-06-19T05:32:57;16.05;;;12.95;;
81211;SDS011;70686;52.494;13.420;2023-06-19T05:35:22;18.70;;;12.80;;
81211;SDS011;70686;52.494;13.420;2023-06-19T05:37:48;14.52;;;12.73;;
81211;SDS011;70686;52.494;13.420;2023-06-19T05:40:14;16.35;;;12.93;;
81211;SDS011;70686;52.494;13.420;2023-06-19T05:42:40;14.45;;;12.95;;
81211;SDS011;70686;52.494;13.420;2023-06-19T05:45:06;16.45;;;13.23;;
81211;SDS011;70686;52.494;13.420;2023-06-19T05:47:32;16.88;;;13.02;;
81211;SDS011;70686;52.494;13.420;2023-06-19T05:49:58;15.38;;;13.05;;
81211;SDS011;70686;52.494;13.420;2023-06-19T05:52:24;17.35;;;12.65;;
81211;SDS011;70686;52.494;13.420;2023-06-19T05:54:50;14.18;;;12.63;;
81211;SDS011;70686;52.494;13.420;2023-06-19T05:57:18;15.23;;;13.63;;
81211;SDS011;70686;52.494;13.420;2023-06-19T05:59:47;18.15;;;13.20;;
81211;SDS011;70686;52.494;13.420;2023-06-19T06:02:18;15.07;;;13.30;;
81211;SDS011;70686;52.494;13.420;2023-06-19T06:04:45;15.55;;;13.63;;
81211;SDS011;70686;52.494;13.420;2023-06-19T06:07:12;15.68;;;13.52;;
81211;SDS011;70686;52.494;13.420;2023-06-19T06:09:38;17.33;;;13.90;;
81211;SDS011;70686;52.494;13.420;2023-06-19T06:12:06;17.35;;;14.02;;
81211;SDS011;70686;52.494;13.420;2023-06-19T06:14:32;15.52;;;12.68;;
81211;SDS011;70686;52.494;13.420;2023-06-19T06:16:59;21.05;;;13.27;;
81211;SDS011;70686;52.494;13.420;2023-06-19T06:19:25;15.00;;;13.38;;
81211;SDS011;70686;52.494;13.420;2023-06-19T06:24:16;19.65;;;12.90;;
81211;SDS011;70686;52.494;13.420;2023-06-19T06:26:42;17.33;;;13.90;;
81211;SDS011;70686;52.494;13.420;2023-06-19T06:29:08;18.30;;;13.77;;
81211;SDS011;70686;52.494;13.420;2023-06-19T06:31:34;15.93;;;13.48;;
81211;SDS011;70686;52.494;13.420;2023-06-19T06:34:00;22.00;;;14.20;;
81211;SDS011;70686;52.494;13.420;2023-06-19T06:36:25;17.40;;;12.73;;
81211;SDS011;70686;52.494;13.420;2023-06-19T06:38:52;19.25;;;14.55;;
81211;SDS011;70686;52.494;13.420;2023-06-19T06:41:17;20.90;;;14.38;;
81211;SDS011;70686;52.494;13.420;2023-06-19T06:46:08;16.02;;;13.25;;
81211;SDS011;70686;52.494;13.420;2023-06-19T06:48:35;27.90;;;13.10;;
81211;SDS011;70686;52.494;13.420;2023-06-19T06:53:27;18.63;;;13.23;;
81211;SDS011;70686;52.494;13.420;2023-06-19T06:55:53;16.85;;;14.00;;
81211;SDS011;70686;52.494;13.420;2023-06-19T06:58:19;23.90;;;14.35;;
81211;SDS011;70686;52.494;13.420;2023-06-19T07:00:45;23.02;;;13.90;;
81211;SDS011;70686;52.494;13.420;2023-06-19T07:03:10;21.83;;;13.48;;
81211;SDS011;70686;52.494;13.420;2023-06-19T07:05:36;18.83;;;13.50;;
81211;SDS011;70686;52.494;13.420;2023-06-19T07:10:28;19.25;;;13.50;;
81211;SDS011;70686;52.494;13.420;2023-06-19T07:12:56;22.90;;;14.70;;
81211;SDS011;70686;52.494;13.420;2023-06-19T07:15:22;21.30;;;13.75;;
81211;SDS011;70686;52.494;13.420;2023-06-19T07:17:47;22.23;;;13.50;;
81211;SDS011;70686;52.494;13.420;2023-06-19T07:25:05;17.00;;;12.98;;
81211;SDS011;70686;52.494;13.420;2023-06-19T07:29:57;15.90;;;13.73;;
81211;SDS011;70686;52.494;13.420;2023-06-19T07:32:22;17.17;;;12.90;;
81211;SDS011;70686;52.494;13.420;2023-06-19T07:34:48;15.82;;;12.70;;
81211;SDS011;70686;52.494;13.420;2023-06-19T07:37:14;16.48;;;13.55;;
81211;SDS011;70686;52.494;13.420;2023-06-19T07:39:49;27.10;;;14.85;;
81211;SDS011;70686;52.494;13.420;2023-06-19T07:42:16;16.45;;;12.90;;
81211;SDS011;70686;52.494;13.420;2023-06-19T07:44:42;14.40;;;12.43;;
81211;SDS011;70686;52.494;13.420;2023-06-19T07:47:08;18.92;;;13.10;;
81211;SDS011;70686;52.494;13.420;2023-06-19T07:52:00;13.05;;;11.80;;
81211;SDS011;70686;52.494;13.420;2023-06-19T07:56:52;16.77;;;12.93;;
81211;SDS011;70686;52.494;13.420;2023-06-19T08:01:43;13.07;;;11.57;;
81211;SDS011;70686;52.494;13.420;2023-06-19T08:04:09;17.63;;;12.15;;
81211;SDS011;70686;52.494;13.420;2023-06-19T08:09:01;17.65;;;12.65;;
81211;SDS011;70686;52.494;13.420;2023-06-19T08:13:52;17.55;;;12.88;;
81211;SDS011;70686;52.494;13.420;2023-06-19T08:18:44;17.35;;;12.30;;
81211;SDS011;70686;52.494;13.420;2023-06-19T08:21:10;14.10;;;11.88;;
81211;SDS011;70686;52.494;13.420;2023-06-19T08:26:02;12.48;;;11.27;;
81211;SDS011;70686;52.494;13.420;2023-06-19T08:30:55;15.20;;;11.73;;
81211;SDS011;70686;52.494;13.420;2023-06-19T08:35:47;13.73;;;11.18;;
81211;SDS011;70686;52.494;13.420;2023-06-19T08:40:38;15.80;;;11.25;;
81211;SDS011;70686;52.494;13.420;2023-06-19T08:43:06;14.77;;;10.88;;
81211;SDS011;70686;52.494;13.420;2023-06-19T08:47:58;15.32;;;11.32;;
81211;SDS011;70686;52.494;13.420;2023-06-19T08:50:24;23.27;;;11.82;;
81211;SDS011;70686;52.494;13.420;2023-06-19T08:52:50;15.57;;;12.00;;
81211;SDS011;70686;52.494;13.420;2023-06-19T08:57:41;17.50;;;11.52;;
81211;SDS011;70686;52.494;13.420;2023-06-19T09:00:07;16.88;;;11.65;;
81211;SDS011;70686;52.494;13.420;2023-06-19T09:02:44;14.63;;;11.80;;
81211;SDS011;70686;52.494;13.420;2023-06-19T09:05:11;12.60;;;10.60;;
81211;SDS011;70686;52.494;13.420;2023-06-19T09:07:38;14.80;;;11.93;;
81211;SDS011;70686;52.494;13.420;2023-06-19T09:10:16;14.02;;;11.50;;
81211;SDS011;70686;52.494;13.420;2023-06-19T09:15:41;14.95;;;11.68;;
81211;SDS011;70686;52.494;13.420;2023-06-19T09:18:08;13.40;;;11.75;;
81211;SDS011;70686;52.494;13.420;2023-06-19T09:20:37;17.60;;;11.88;;
81211;SDS011;70686;52.494;13.420;2023-06-19T09:23:09;16.20;;;11.55;;
81211;SDS011;70686;52.494;13.420;2023-06-19T09:25:52;15.75;;;11.68;;
81211;SDS011;70686;52.494;13.420;2023-06-19T09:28:28;12.75;;;11.55;;
81211;SDS011;70686;52.494;13.420;2023-06-19T09:30:54;13.88;;;11.98;;
81211;SDS011;70686;52.494;13.420;2023-06-19T09:33:29;17.23;;;13.02;;
81211;SDS011;70686;52.494;13.420;2023-06-19T09:35:56;13.20;;;11.75;;
81211;SDS011;70686;52.494;13.420;2023-06-19T09:38:24;19.55;;;11.95;;
81211;SDS011;70686;52.494;13.420;2023-06-19T09:40:51;17.92;;;13.60;;
81211;SDS011;70686;52.494;13.420;2023-06-19T09:43:39;19.05;;;12.25;;
81211;SDS011;70686;52.494;13.420;2023-06-19T09:46:08;15.18;;;11.48;;
81211;SDS011;70686;52.494;13.420;2023-06-19T09:48:35;22.50;;;11.85;;
81211;SDS011;70686;52.494;13.420;2023-06-19T09:54:08;14.95;;;12.40;;
81211;SDS011;70686;52.494;13.420;2023-06-19T09:56:35;16.08;;;12.40;;
81211;SDS011;70686;52.494;13.420;2023-06-19T09:59:02;15.98;;;11.80;;
81211;SDS011;70686;52.494;13.420;2023-06-19T10:01:29;12.85;;;11.65;;
81211;SDS011;70686;52.494;13.420;2023-06-19T10:04:06;17.08;;;11.98;;
81211;SDS011;70686;52.494;13.420;2023-06-19T10:06:41;18.25;;;12.55;;
81211;SDS011;70686;52.494;13.420;2023-06-19T10:11:47;16.42;;;13.45;;
81211;SDS011;70686;52.494;13.420;2023-06-19T10:14:16;13.90;;;11.30;;
81211;SDS011;70686;52.494;13.420;2023-06-19T10:16:45;13.80;;;11.82;;
81211;SDS011;70686;52.494;13.420;2023-06-19T10:19:13;12.95;;;11.55;;
81211;SDS011;70686;52.494;13.420;2023-06-19T10:21:43;16.27;;;11.90;;
81211;SDS011;70686;52.494;13.420;2023-06-19T10:24:13;15.70;;;12.02;;
81211;SDS011;70686;52.494;13.420;2023-06-19T10:26:40;13.10;;;11.25;;
81211;SDS011;70686;52.494;13.420;2023-06-19T10:29:15;13.10;;;11.60;;
81211;SDS011;70686;52.494;13.420;2023-06-19T10:31:42;15.02;;;12.13;;
81211;SDS011;70686;52.494;13.420;2023-06-19T10:34:09;13.40;;;11.75;;
81211;SDS011;70686;52.494;13.420;2023-06-19T10:36:35;15.98;;;14.07;;
81211;SDS011;70686;52.494;13.420;2023-06-19T10:39:00;15.32;;;12.80;;
81211;SDS011;70686;52.494;13.420;2023-06-19T10:41:26;15.38;;;12.32;;
81211;SDS011;70686;52.494;13.420;2023-06-19T10:44:07;13.32;;;12.02;;
81211;SDS011;70686;52.494;13.420;2023-06-19T10:46:38;14.57;;;11.95;;
81211;SDS011;70686;52.494;13.420;2023-06-19T10:49:05;14.63;;;12.98;;
81211;SDS011;70686;52.494;13.420;2023-06-19T10:51:35;16.33;;;12.35;;
81211;SDS011;70686;52.494;13.420;2023-06-19T10:54:01;14.68;;;11.25;;
81211;SDS011;70686;52.494;13.420;2023-06-19T10:56:27;13.52;;;11.50;;
81211;SDS011;70686;52.494;13.420;2023-06-19T10:59:03;15.35;;;11.73;;
81211;SDS011;70686;52.494;13.420;2023-06-19T11:01:40;13.38;;;11.98;;
81211;SDS011;70686;52.494;13.420;2023-06-19T11:04:07;13.98;;;11.68;;
81211;SDS011;70686;52.494;13.420;2023-06-19T11:06:37;17.00;;;11.85;;
81211;SDS011;70686;52.494;13.420;2023-06-19T11:09:03;14.05;;;12.25;;
81211;SDS011;70686;52.494;13.420;2023-06-19T11:14:06;15.45;;;10.68;;
81211;SDS011;70686;52.494;13.420;2023-06-19T11:16:32;12.95;;;10.52;;
81211;SDS011;70686;52.494;13.420;2023-06-19T11:19:00;16.40;;;11.40;;
81211;SDS011;70686;52.494;13.420;2023-06-19T11:21:33;12.05;;;10.48;;
81211;SDS011;70686;52.494;13.420;2023-06-19T11:24:00;11.70;;;10.38;;
81211;SDS011;70686;52.494;13.420;2023-06-19T11:26:26;12.75;;;11.45;;
81211;SDS011;70686;52.494;13.420;2023-06-19T11:28:52;11.75;;;10.57;;
81211;SDS011;70686;52.494;13.420;2023-06-19T11:31:24;14.18;;;10.50;;
81211;SDS011;70686;52.494;13.420;2023-06-19T11:34:00;11.38;;;10.35;;
81211;SDS011;70686;52.494;13.420;2023-06-19T11:36:27;11.60;;;10.40;;
81211;SDS011;70686;52.494;13.420;2023-06-19T11:38:54;11.60;;;10.48;;
81211;SDS011;70686;52.494;13.420;2023-06-19T11:41:27;12.98;;;10.75;;
81211;SDS011;70686;52.494;13.420;2023-06-19T11:44:00;12.50;;;10.00;;
81211;SDS011;70686;52.494;13.420;2023-06-19T11:46:30;11.35;;;10.18;;
81211;SDS011;70686;52.494;13.420;2023-06-19T11:49:07;11.23;;;9.93;;
81211;SDS011;70686;52.494;13.420;2023-06-19T11:51:33;17.40;;;10.90;;
81211;SDS011;70686;52.494;13.420;2023-06-19T11:53:58;9.98;;;8.85;;
81211;SDS011;70686;52.494;13.420;2023-06-19T11:56:24;10.15;;;9.10;;
81211;SDS011;70686;52.494;13.420;2023-06-19T11:58:49;9.85;;;8.95;;
81211;SDS011;70686;52.494;13.420;2023-06-19T12:01:15;11.13;;;9.77;;
81211;SDS011;70686;52.494;13.420;2023-06-19T12:03:41;11.15;;;10.05;;
81211;SDS011;70686;52.494;13.420;2023-06-19T12:06:06;10.27;;;9.30;;
81211;SDS011;70686;52.494;13.420;2023-06-19T12:08:32;9.90;;;9.00;;
81211;SDS011;70686;52.494;13.420;2023-06-19T12:10:58;10.70;;;9.25;;
81211;SDS011;70686;52.494;13.420;2023-06-19T12:13:24;10.60;;;9.35;;
81211;SDS011;70686;52.494;13.420;2023-06-19T12:15:49;10.18;;;9.27;;
81211;SDS011;70686;52.494;13.420;2023-06-19T12:18:15;12.30;;;9.75;;
81211;SDS011;70686;52.494;13.420;2023-06-19T12:20:41;11.45;;;10.25;;
81211;SDS011;70686;52.494;13.420;2023-06-19T12:23:06;11.25;;;10.15;;
81211;SDS011;70686;52.494;13.420;2023-06-19T12:25:32;10.35;;;9.35;;
81211;SDS011;70686;52.494;13.420;2023-06-19T12:27:57;11.57;;;10.48;;
81211;SDS011;70686;52.494;13.420;2023-06-19T12:30:23;14.75;;;9.68;;
81211;SDS011;70686;52.494;13.420;2023-06-19T12:32:49;9.80;;;8.45;;
81211;SDS011;70686;52.494;13.420;2023-06-19T12:35:15;9.40;;;8.40;;
81211;SDS011;70686;52.494;13.420;2023-06-19T12:37:41;13.80;;;8.75;;
81211;SDS011;70686;52.494;13.420;2023-06-19T12:40:07;11.48;;;9.00;;
81211;SDS011;70686;52.494;13.420;2023-06-19T12:42:35;10.95;;;8.85;;
81211;SDS011;70686;52.494;13.420;2023-06-19T12:45:01;9.65;;;8.65;;
81211;SDS011;70686;52.494;13.420;2023-06-19T12:47:28;9.88;;;8.98;;
81211;SDS011;70686;52.494;13.420;2023-06-19T12:49:53;9.65;;;8.75;;
81211;SDS011;70686;52.494;13.420;2023-06-19T12:52:19;15.35;;;11.73;;
81211;SDS011;70686;52.494;13.420;2023-06-19T12:54:45;13.25;;;8.63;;
81211;SDS011;70686;52.494;13.420;2023-06-19T12:57:11;9.73;;;8.73;;
81211;SDS011;70686;52.494;13.420;2023-06-19T12:59:36;11.65;;;8.85;;
81211;SDS011;70686;52.494;13.420;2023-06-19T13:02:02;9.45;;;8.55;;
81211;SDS011;70686;52.494;13.420;2023-06-19T13:04:28;11.98;;;7.97;;
81211;SDS011;70686;52.494;13.420;2023-06-19T13:06:53;11.05;;;8.63;;
81211;SDS011;70686;52.494;13.420;2023-06-19T13:09:19;11.30;;;9.77;;
81211;SDS011;70686;52.494;13.420;2023-06-19T13:11:47;11.80;;;9.32;;
81211;SDS011;70686;52.494;13.420;2023-06-19T13:14:14;11.00;;;8.80;;
81211;SDS011;70686;52.494;13.420;2023-06-19T13:16:40;11.20;;;8.43;;
81211;SDS011;70686;52.494;13.420;2023-06-19T13:19:06;10.32;;;9.23;;
81211;SDS011;70686;52.494;13.420;2023-06-19T13:21:31;12.85;;;9.18;;
81211;SDS011;70686;52.494;13.420;2023-06-19T13:23:57;9.98;;;9.02;;
81211;SDS011;70686;52.494;13.420;2023-06-19T13:26:22;9.38;;;8.27;;
81211;SDS011;70686;52.494;13.420;2023-06-19T13:28:48;9.73;;;8.73;;
81211;SDS011;70686;52.494;13.420;2023-06-19T13:31:14;11.48;;;8.48;;
81211;SDS011;70686;52.494;13.420;2023-06-19T13:33:39;12.13;;;8.88;;
81211;SDS011;70686;52.494;13.420;2023-06-19T13:36:05;11.23;;;8.90;;
81211;SDS011;70686;52.494;13.420;2023-06-19T13:38:31;13.63;;;9.23;;
81211;SDS011;70686;52.494;13.420;2023-06-19T13:40:56;10.82;;;9.73;;
81211;SDS011;70686;52.494;13.420;2023-06-19T13:43:22;10.30;;;9.20;;
81211;SDS011;70686;52.494;13.420;2023-06-19T13:45:48;10.02;;;9.13;;
81211;SDS011;70686;52.494;13.420;2023-06-19T13:48:14;9.55;;;8.63;;
81211;SDS011;70686;52.494;13.420;2023-06-19T13:50:40;11.13;;;10.02;;
81211;SDS011;70686;52.494;13.420;2023-06-19T13:53:05;12.38;;;9.02;;
81211;SDS011;70686;52.494;13.420;2023-06-19T13:55:31;10.38;;;8.68;;
81211;SDS011;70686;52.494;13.420;2023-06-19T13:57:57;13.82;;;8.25;;
81211;SDS011;70686;52.494;13.420;2023-06-19T14:00:23;10.45;;;8.57;;
81211;SDS011;70686;52.494;13.420;2023-06-19T14:02:48;11.80;;;10.48;;
81211;SDS011;70686;52.494;13.420;2023-06-19T14:05:15;9.82;;;8.93;;
81211;SDS011;70686;52.494;13.420;2023-06-19T14:07:41;9.90;;;8.75;;
81211;SDS011;70686;52.494;13.420;2023-06-19T14:10:08;12.70;;;9.90;;
81211;SDS011;70686;52.494;13.420;2023-06-19T14:12:34;10.68;;;9.15;;
81211;SDS011;70686;52.494;13.420;2023-06-19T14:14:59;12.20;;;9.23;;
81211;SDS011;70686;52.494;13.420;2023-06-19T14:17:25;10.48;;;9.27;;
81211;SDS011;70686;52.494;13.420;2023-06-19T14:19:51;10.93;;;8.88;;
81211;SDS011;70686;52.494;13.420;2023-06-19T14:22:16;11.95;;;9.45;;
81211;SDS011;70686;52.494;13.420;2023-06-19T14:24:42;11.50;;;9.57;;
81211;SDS011;70686;52.494;13.420;2023-06-19T14:27:08;9.85;;;8.95;;
81211;SDS011;70686;52.494;13.420;2023-06-19T14:29:34;9.88;;;8.95;;
81211;SDS011;70686;52.494;13.420;2023-06-19T14:31:59;12.90;;;9.77;;
81211;SDS011;70686;52.494;13.420;2023-06-19T14:34:25;11.23;;;8.77;;
81211;SDS011;70686;52.494;13.420;2023-06-19T14:36:51;9.05;;;8.23;;
81211;SDS011;70686;52.494;13.420;2023-06-19T14:39:16;15.65;;;9.23;;
81211;SDS011;70686;52.494;13.420;2023-06-19T14:41:42;12.27;;;8.75;;
81211;SDS011;70686;52.494;13.420;2023-06-19T14:44:08;12.55;;;8.32;;
81211;SDS011;70686;52.494;13.420;2023-06-19T14:46:34;9.73;;;8.80;;
81211;SDS011;70686;52.494;13.420;2023-06-19T14:49:07;11.07;;;8.60;;
81211;SDS011;70686;52.494;13.420;2023-06-19T14:51:35;8.60;;;7.88;;
81211;SDS011;70686;52.494;13.420;2023-06-19T14:54:01;8.38;;;7.68;;
81211;SDS011;70686;52.494;13.420;2023-06-19T14:56:27;11.02;;;8.55;;
81211;SDS011;70686;52.494;13.420;2023-06-19T14:58:53;10.55;;;9.02;;
81211;SDS011;70686;52.494;13.420;2023-06-19T15:01:19;10.25;;;8.60;;
81211;SDS011;70686;52.494;13.420;2023-06-19T15:03:45;9.13;;;8.23;;
81211;SDS011;70686;52.494;13.420;2023-06-19T15:06:10;8.70;;;7.97;;
81211;SDS011;70686;52.494;13.420;2023-06-19T15:08:36;10.55;;;8.15;;
81211;SDS011;70686;52.494;13.420;2023-06-19T15:11:03;8.80;;;7.90;;
81211;SDS011;70686;52.494;13.420;2023-06-19T15:13:30;12.65;;;9.23;;
81211;SDS011;70686;52.494;13.420;2023-06-19T15:15:56;8.65;;;7.75;;
81211;SDS011;70686;52.494;13.420;2023-06-19T15:18:23;8.68;;;7.88;;
81211;SDS011;70686;52.494;13.420;2023-06-19T15:20:52;9.27;;;8.30;;
81211;SDS011;70686;52.494;13.420;2023-06-19T15:26:25;13.20;;;8.80;;
81211;SDS011;70686;52.494;13.420;2023-06-19T15:28:50;9.23;;;8.02;;
81211;SDS011;70686;52.494;13.420;2023-06-19T15:31:22;9.25;;;8.45;;
81211;SDS011;70686;52.494;13.420;2023-06-19T15:33:51;10.05;;;8.40;;
81211;SDS011;70686;52.494;13.420;2023-06-19T15:36:17;11.27;;;9.30;;
81211;SDS011;70686;52.494;13.420;2023-06-19T15:38:46;12.93;;;8.73;;
81211;SDS011;70686;52.494;13.420;2023-06-19T15:41:11;9.80;;;8.80;;
81211;SDS011;70686;52.494;13.420;2023-06-19T15:43:38;10.77;;;7.88;;